Time;durP1;ratioP1;P1;durP2;ratioP2;P2;SDS_P1;SDS_P2;PMS_P1;PMS_P2;Temp;Humidity;BMP_temperature;BMP_pressure;BME280_temperature;BME280_humidity;BME280_pressure;Samples;Min_cycle;Max_cycle;Signal;HPM_P1;HPM_P2
2022/11/20 00:01:42;;;;;;;6.43;3.60;;;;;;;;;;10329468;28;20237;-61
2022/11/20 00:06:43;;;;;;;8.85;3.42;;;;;;;;;;10328604;28;20092;-55
2022/11/20 00:11:43;;;;;;;5.80;3.55;;;;;;;;;;10328873;28;20030;-53
2022/11/20 00:16:44;;;;;;;7.55;3.42;;;;;;;;;;10328557;28;20073;-53
2022/11/20 00:21:44;;;;;;;6.70;2.85;;;;;;;;;;10327395;28;20089;-56
2022/11/20 00:26:45;;;;;;;5.90;3.30;;;;;;;;;;10327849;28;20026;-55
2022/11/20 00:31:46;;;;;;;7.93;3.15;;;;;;;;;;10326896;28;20418;-54
2022/11/20 00:36:46;;;;;;;6.95;2.92;;;;;;;;;;10327396;28;20453;-57
2022/11/20 00:41:47;;;;;;;4.68;2.85;;;;;;;;;;10327515;28;20502;-63
2022/11/20 00:46:47;;;;;;;9.85;3.30;;;;;;;;;;10327531;28;20386;-53
2022/11/20 00:51:48;;;;;;;6.10;3.47;;;;;;;;;;10327632;28;20517;-62
2022/11/20 00:56:49;;;;;;;4.55;3.50;;;;;;;;;;10327848;28;20034;-50
2022/11/20 01:01:49;;;;;;;6.43;3.08;;;;;;;;;;10327172;28;20026;-56
2022/11/20 01:06:50;;;;;;;8.95;3.10;;;;;;;;;;10327195;28;20088;-56
2022/11/20 01:11:50;;;;;;;6.63;3.00;;;;;;;;;;10326497;28;20467;-58
2022/11/20 01:16:51;;;;;;;3.88;2.47;;;;;;;;;;10326629;28;20022;-57
2022/11/20 01:21:54;;;;;;;7.60;2.97;;;;;;;;;;10326891;28;20035;-51
2022/11/20 01:26:54;;;;;;;5.57;2.60;;;;;;;;;;10325993;28;20470;-49
2022/11/20 01:31:55;;;;;;;7.28;2.80;;;;;;;;;;10325861;28;20050;-58
2022/11/20 01:36:55;;;;;;;6.10;3.03;;;;;;;;;;10326738;28;20026;-48
2022/11/20 01:47:25;;;;;;;4.63;2.97;;;;;;;;;;10335396;28;20034;-51
2022/11/20 01:52:40;;;;;;;4.00;2.72;;;;;;;;;;10332676;28;20157;-52
2022/11/20 01:57:41;;;;;;;4.82;3.03;;;;;;;;;;10332448;28;20027;-56
2022/11/20 02:02:47;;;;;;;5.20;2.78;;;;;;;;;;10333520;28;20041;-49
2022/11/20 02:07:49;;;;;;;7.60;3.03;;;;;;;;;;10333794;28;20054;-48
2022/11/20 02:18:11;;;;;;;3.45;2.67;;;;;;;;;;10332843;28;20030;-50
2022/11/20 02:23:23;;;;;;;3.47;2.38;;;;;;;;;;10331791;28;20061;-55
2022/11/20 02:28:25;;;;;;;3.67;2.17;;;;;;;;;;10330700;28;20097;-47
2022/11/20 02:33:25;;;;;;;4.03;2.80;;;;;;;;;;10330404;28;20332;-48
2022/11/20 02:38:26;;;;;;;4.15;2.28;;;;;;;;;;10331466;28;20030;-51
2022/11/20 02:43:27;;;;;;;3.92;2.50;;;;;;;;;;10331458;28;20041;-48
2022/11/20 02:48:27;;;;;;;14.18;3.03;;;;;;;;;;10331459;28;20031;-48
2022/11/20 02:53:28;;;;;;;2.88;2.25;;;;;;;;;;10330464;28;20046;-48
2022/11/20 02:58:28;;;;;;;3.03;2.38;;;;;;;;;;10330605;28;20026;-52
2022/11/20 03:03:29;;;;;;;4.32;2.33;;;;;;;;;;10330811;28;20030;-55
2022/11/20 03:08:30;;;;;;;3.60;2.60;;;;;;;;;;10330149;28;20027;-59
2022/11/20 03:13:30;;;;;;;5.35;2.28;;;;;;;;;;10329958;28;20034;-55
2022/11/20 03:18:31;;;;;;;4.90;2.70;;;;;;;;;;10329790;28;20040;-53
2022/11/20 03:23:32;;;;;;;3.42;2.50;;;;;;;;;;10330171;28;20030;-53
2022/11/20 03:28:33;;;;;;;2.80;2.38;;;;;;;;;;10330572;28;20089;-49
2022/11/20 03:33:33;;;;;;;3.17;2.40;;;;;;;;;;10329510;28;20038;-47
2022/11/20 03:38:34;;;;;;;2.40;1.98;;;;;;;;;;10329207;28;20026;-48
2022/11/20 03:43:36;;;;;;;3.53;2.38;;;;;;;;;;10329809;28;20030;-58
2022/11/20 03:48:36;;;;;;;4.03;2.58;;;;;;;;;;10329520;28;20088;-52
2022/11/20 03:53:38;;;;;;;2.72;2.05;;;;;;;;;;10328589;28;20440;-56
2022/11/20 03:58:40;;;;;;;5.03;2.70;;;;;;;;;;10328703;28;20032;-54
2022/11/20 04:03:42;;;;;;;3.00;2.40;;;;;;;;;;10326964;28;20029;-48
2022/11/20 04:08:43;;;;;;;3.22;2.10;;;;;;;;;;10328141;28;20022;-49
2022/11/20 04:13:50;;;;;;;3.65;1.92;;;;;;;;;;10328055;28;20619;-50
2022/11/20 04:18:57;;;;;;;5.32;2.38;;;;;;;;;;10328292;28;20089;-51
2022/11/20 04:23:58;;;;;;;2.38;1.80;;;;;;;;;;10327860;28;20297;-52
2022/11/20 04:29:01;;;;;;;2.40;2.17;;;;;;;;;;10327502;28;20046;-53
2022/11/20 04:34:05;;;;;;;3.70;2.05;;;;;;;;;;10327673;28;20498;-54
2022/11/20 04:39:06;;;;;;;2.30;2.00;;;;;;;;;;10327807;28;20030;-51
2022/11/20 04:44:07;;;;;;;3.83;2.08;;;;;;;;;;10327180;28;20030;-49
2022/11/20 04:49:12;;;;;;;2.40;2.00;;;;;;;;;;10327287;28;20083;-50
2022/11/20 04:54:13;;;;;;;5.10;2.30;;;;;;;;;;10327007;28;20076;-58
2022/11/20 04:59:14;;;;;;;2.80;2.00;;;;;;;;;;10326813;28;20026;-52
2022/11/20 05:04:14;;;;;;;2.50;2.20;;;;;;;;;;10326755;28;20077;-55
2022/11/20 05:09:15;;;;;;;3.00;2.00;;;;;;;;;;10326655;28;20042;-58
2022/11/20 05:14:15;;;;;;;2.83;2.15;;;;;;;;;;10329767;28;20031;-60
2022/11/20 05:19:16;;;;;;;5.07;2.00;;;;;;;;;;10333970;28;20109;-53
2022/11/20 05:24:17;;;;;;;1.95;1.73;;;;;;;;;;10334876;28;20159;-51
2022/11/20 05:29:17;;;;;;;5.72;1.88;;;;;;;;;;10333965;28;20050;-52
2022/11/20 05:34:18;;;;;;;2.53;1.90;;;;;;;;;;10334194;28;20022;-56
2022/11/20 05:39:18;;;;;;;3.38;2.03;;;;;;;;;;10333981;28;20022;-50
2022/11/20 05:44:19;;;;;;;2.58;1.60;;;;;;;;;;10334359;28;20034;-49
2022/11/20 05:49:19;;;;;;;1.98;1.60;;;;;;;;;;10333409;28;20022;-52
2022/11/20 05:54:20;;;;;;;2.45;2.10;;;;;;;;;;10333528;28;20037;-54
2022/11/20 05:59:20;;;;;;;1.98;1.77;;;;;;;;;;10333051;28;20030;-63
2022/11/20 06:04:21;;;;;;;2.63;1.73;;;;;;;;;;10333276;28;20023;-56
2022/11/20 06:09:22;;;;;;;2.67;2.00;;;;;;;;;;10333353;28;20630;-52
2022/11/20 06:14:22;;;;;;;2.20;1.90;;;;;;;;;;10332559;28;20035;-53
2022/11/20 06:19:23;;;;;;;2.85;1.90;;;;;;;;;;10331305;28;20034;-51
2022/11/20 06:24:25;;;;;;;3.13;1.80;;;;;;;;;;10331696;28;20039;-50
2022/11/20 06:29:25;;;;;;;4.07;2.05;;;;;;;;;;10330583;28;20057;-59
2022/11/20 06:34:26;;;;;;;11.35;2.30;;;;;;;;;;10331586;28;20508;-64
2022/11/20 06:39:27;;;;;;;8.05;2.38;;;;;;;;;;10331465;28;20516;-54
2022/11/20 06:44:27;;;;;;;19.42;2.78;;;;;;;;;;10331696;28;20026;-59
2022/11/20 06:49:28;;;;;;;7.45;2.17;;;;;;;;;;10331346;28;20186;-67
2022/11/20 06:54:28;;;;;;;6.93;1.90;;;;;;;;;;10330587;28;20031;-64
2022/11/20 06:59:29;;;;;;;4.28;2.40;;;;;;;;;;10331443;28;20033;-67
2022/11/20 07:04:29;;;;;;;4.53;1.98;;;;;;;;;;10330338;28;20490;-66
2022/11/20 07:09:30;;;;;;;3.55;2.10;;;;;;;;;;10330999;28;20486;-66
2022/11/20 07:14:30;;;;;;;5.88;2.15;;;;;;;;;;10328759;28;20073;-67
2022/11/20 07:19:31;;;;;;;5.63;2.40;;;;;;;;;;10330082;28;20030;-64
2022/11/20 07:24:31;;;;;;;3.05;2.30;;;;;;;;;;10329862;28;20027;-66
2022/11/20 07:29:32;;;;;;;10.55;2.40;;;;;;;;;;10329041;28;20406;-57
2022/11/20 07:34:33;;;;;;;18.25;2.85;;;;;;;;;;10329654;28;20389;-63
2022/11/20 07:39:33;;;;;;;8.32;2.45;;;;;;;;;;10328155;28;20034;-66
2022/11/20 07:44:34;;;;;;;7.13;2.50;;;;;;;;;;10328050;28;20034;-63
2022/11/20 07:49:35;;;;;;;15.70;2.15;;;;;;;;;;10327443;28;20026;-57
2022/11/20 07:54:35;;;;;;;6.75;2.35;;;;;;;;;;10327418;28;20030;-60
2022/11/20 07:59:36;;;;;;;9.48;2.17;;;;;;;;;;10327313;28;20030;-53
2022/11/20 08:04:37;;;;;;;5.20;2.55;;;;;;;;;;10327650;28;20026;-59
2022/11/20 08:09:37;;;;;;;4.13;2.33;;;;;;;;;;10328401;28;20034;-56
2022/11/20 08:14:38;;;;;;;13.38;2.30;;;;;;;;;;10328841;28;20070;-57
2022/11/20 08:19:38;;;;;;;7.63;2.67;;;;;;;;;;10328105;28;20034;-60
2022/11/20 08:24:39;;;;;;;5.05;2.50;;;;;;;;;;10328109;28;20030;-59
2022/11/20 08:29:40;;;;;;;7.43;2.25;;;;;;;;;;10327652;28;20038;-54
2022/11/20 08:34:40;;;;;;;3.85;2.55;;;;;;;;;;10327988;28;20049;-56
2022/11/20 08:39:41;;;;;;;7.70;2.60;;;;;;;;;;10327904;28;20061;-61
2022/11/20 08:44:42;;;;;;;4.32;2.50;;;;;;;;;;10327575;28;20505;-60
2022/11/20 08:49:43;;;;;;;3.03;2.20;;;;;;;;;;10326960;28;20377;-52
2022/11/20 08:54:44;;;;;;;3.65;2.40;;;;;;;;;;10327061;28;20038;-57
2022/11/20 08:59:44;;;;;;;6.53;2.80;;;;;;;;;;10327130;28;20023;-53
2022/11/20 09:04:45;;;;;;;2.53;2.00;;;;;;;;;;10327541;28;20084;-57
2022/11/20 09:09:45;;;;;;;2.85;2.22;;;;;;;;;;10326969;28;20288;-60
2022/11/20 09:14:46;;;;;;;4.38;2.30;;;;;;;;;;10326850;28;20104;-62
2022/11/20 09:19:47;;;;;;;6.50;2.33;;;;;;;;;;10326690;28;20030;-61
2022/11/20 09:24:47;;;;;;;4.43;2.65;;;;;;;;;;10327184;28;20018;-57
2022/11/20 09:29:48;;;;;;;2.75;2.05;;;;;;;;;;10327095;28;20057;-60
2022/11/20 09:34:48;;;;;;;3.38;2.17;;;;;;;;;;10326930;28;20031;-59
2022/11/20 09:39:49;;;;;;;3.13;2.33;;;;;;;;;;10326895;28;20375;-59
2022/11/20 09:45:12;;;;;;;3.78;2.13;;;;;;;;;;10326885;28;20026;-57
2022/11/20 09:50:43;;;;;;;3.38;2.45;;;;;;;;;;10325050;28;20031;-60
2022/11/20 09:55:45;;;;;;;7.20;2.00;;;;;;;;;;10326210;28;20113;-62
2022/11/20 10:00:47;;;;;;;5.18;2.10;;;;;;;;;;10328050;28;20031;-56
2022/11/20 10:05:53;;;;;;;4.25;2.00;;;;;;;;;;10332102;28;20383;-59
2022/11/20 10:11:01;;;;;;;3.13;2.20;;;;;;;;;;10331867;28;20087;-56
2022/11/20 10:16:32;;;;;;;2.30;1.70;;;;;;;;;;10333069;28;20022;-58
2022/11/20 10:21:50;;;;;;;2.55;2.05;;;;;;;;;;10332579;28;20471;-57
2022/11/20 10:26:59;;;;;;;3.97;2.65;;;;;;;;;;10332089;28;20023;-58
2022/11/20 10:32:04;;;;;;;2.15;1.83;;;;;;;;;;10331938;28;20486;-60
2022/11/20 10:37:16;;;;;;;3.15;2.05;;;;;;;;;;10331352;28;20022;-58
2022/11/20 10:42:37;;;;;;;2.72;1.92;;;;;;;;;;10331341;28;20030;-61
2022/11/20 10:47:37;;;;;;;2.38;2.00;;;;;;;;;;10331662;28;20444;-61
2022/11/20 10:52:59;;;;;;;2.40;1.77;;;;;;;;;;10331413;28;20035;-59
2022/11/20 10:58:35;;;;;;;2.22;1.77;;;;;;;;;;10331436;28;20026;-58
2022/11/20 11:03:36;;;;;;;2.53;1.95;;;;;;;;;;10330594;28;20027;-63
2022/11/20 11:08:39;;;;;;;2.83;2.10;;;;;;;;;;10329707;28;20053;-60
2022/11/20 11:13:40;;;;;;;3.58;1.85;;;;;;;;;;10330966;28;20053;-54
2022/11/20 11:18:41;;;;;;;2.03;1.83;;;;;;;;;;10330987;28;20378;-63
2022/11/20 11:23:43;;;;;;;3.53;2.03;;;;;;;;;;10330044;28;20023;-63
2022/11/20 11:29:03;;;;;;;3.35;1.88;;;;;;;;;;10329205;28;20049;-59
2022/11/20 11:34:16;;;;;;;2.65;2.08;;;;;;;;;;10329886;28;20514;-56
2022/11/20 11:39:19;;;;;;;2.80;1.67;;;;;;;;;;10328712;28;20029;-62
2022/11/20 11:49:48;;;;;;;3.65;1.90;;;;;;;;;;10329885;28;20037;-62
2022/11/20 11:55:02;;;;;;;2.63;1.98;;;;;;;;;;10329592;28;20046;-61
2022/11/20 12:00:12;;;;;;;2.95;2.08;;;;;;;;;;10328386;28;20030;-52
2022/11/20 12:05:26;;;;;;;2.03;1.80;;;;;;;;;;10328465;28;20037;-58
2022/11/20 12:10:33;;;;;;;2.60;1.90;;;;;;;;;;10327856;28;20034;-56
2022/11/20 12:15:34;;;;;;;2.53;1.73;;;;;;;;;;10328858;28;20046;-60
2022/11/20 12:20:48;;;;;;;2.13;1.55;;;;;;;;;;10327364;28;20038;-62
2022/11/20 12:25:56;;;;;;;1.80;1.60;;;;;;;;;;10326954;28;20029;-58
2022/11/20 12:31:11;;;;;;;2.90;1.40;;;;;;;;;;10327126;28;21921;-52
2022/11/20 12:36:27;;;;;;;4.97;1.80;;;;;;;;;;10326587;28;20037;-55
2022/11/20 12:47:54;;;;;;;2.00;1.80;;;;;;;;;;10326728;28;20486;-61
2022/11/20 12:53:51;;;;;;;2.03;1.80;;;;;;;;;;10321940;28;20320;-54
2022/11/20 12:59:18;;;;;;;2.25;1.70;;;;;;;;;;10327854;28;20084;-61
2022/11/20 13:04:36;;;;;;;1.98;1.52;;;;;;;;;;10326154;28;20030;-55
2022/11/20 13:09:47;;;;;;;3.67;2.00;;;;;;;;;;10327636;28;20222;-61
2022/11/20 13:15:01;;;;;;;2.25;1.55;;;;;;;;;;10325934;28;20048;-59
2022/11/20 13:20:05;;;;;;;1.95;1.75;;;;;;;;;;10327368;28;20026;-61
2022/11/20 13:25:10;;;;;;;1.70;1.58;;;;;;;;;;10326922;28;20042;-60
2022/11/20 13:30:18;;;;;;;1.92;1.60;;;;;;;;;;10326895;28;20042;-60
2022/11/20 13:35:30;;;;;;;1.63;1.33;;;;;;;;;;10328472;28;20030;-61
2022/11/20 13:40:31;;;;;;;2.55;1.60;;;;;;;;;;10334869;28;20044;-63
2022/11/20 13:45:32;;;;;;;6.50;1.90;;;;;;;;;;10334354;28;20034;-60
2022/11/20 13:50:36;;;;;;;1.52;1.40;;;;;;;;;;10334045;28;20072;-63
2022/11/20 13:55:50;;;;;;;1.60;1.42;;;;;;;;;;10333861;28;20030;-58
2022/11/20 14:01:16;;;;;;;2.97;1.58;;;;;;;;;;10332910;28;20066;-56
2022/11/20 14:06:31;;;;;;;3.78;1.42;;;;;;;;;;10332409;28;20529;-60
2022/11/20 14:11:31;;;;;;;2.05;1.40;;;;;;;;;;10333275;28;20136;-54
2022/11/20 14:16:35;;;;;;;2.17;1.40;;;;;;;;;;10333718;28;20301;-59
2022/11/20 14:21:36;;;;;;;2.47;1.50;;;;;;;;;;10332881;28;20467;-59
2022/11/20 14:26:42;;;;;;;1.70;1.50;;;;;;;;;;10331674;28;20026;-57
2022/11/20 14:31:45;;;;;;;1.90;1.60;;;;;;;;;;10331162;28;20046;-63
2022/11/20 14:36:46;;;;;;;2.70;1.70;;;;;;;;;;10332332;28;20027;-57
2022/11/20 14:41:53;;;;;;;1.52;1.40;;;;;;;;;;10330909;28;20026;-59
2022/11/20 14:46:56;;;;;;;1.40;1.30;;;;;;;;;;10332144;28;20031;-58
2022/11/20 14:52:10;;;;;;;1.67;1.30;;;;;;;;;;10330994;28;20061;-59
2022/11/20 14:57:27;;;;;;;2.13;1.55;;;;;;;;;;10331689;28;20193;-57
2022/11/20 15:02:30;;;;;;;1.65;1.55;;;;;;;;;;10332476;28;20190;-56
2022/11/20 15:07:45;;;;;;;4.88;1.40;;;;;;;;;;10331201;28;20030;-58
2022/11/20 15:12:50;;;;;;;2.05;1.35;;;;;;;;;;10331433;28;20030;-59
2022/11/20 15:17:51;;;;;;;1.88;1.42;;;;;;;;;;10329890;28;20466;-56
2022/11/20 15:22:52;;;;;;;2.42;1.52;;;;;;;;;;10331027;28;20030;-56
2022/11/20 15:27:56;;;;;;;1.70;1.60;;;;;;;;;;10330254;28;20386;-62
2022/11/20 15:32:56;;;;;;;1.92;1.52;;;;;;;;;;10328116;28;20047;-61
2022/11/20 15:37:57;;;;;;;1.45;1.35;;;;;;;;;;10329651;28;20027;-63
2022/11/20 15:43:03;;;;;;;1.40;1.30;;;;;;;;;;10330311;28;20026;-56
2022/11/20 15:48:08;;;;;;;1.40;1.30;;;;;;;;;;10329496;28;20053;-64
2022/11/20 15:53:10;;;;;;;1.27;1.20;;;;;;;;;;10329006;28;20497;-54
2022/11/20 15:58:10;;;;;;;1.83;1.33;;;;;;;;;;10328543;28;20351;-56
2022/11/20 16:03:13;;;;;;;2.10;1.33;;;;;;;;;;10329075;28;20031;-57
2022/11/20 16:08:14;;;;;;;1.83;1.45;;;;;;;;;;10328616;28;20425;-57
2022/11/20 16:18:57;;;;;;;2.08;1.40;;;;;;;;;;10240943;29;20538;-62
2022/11/20 16:24:04;;;;;;;2.25;1.77;;;;;;;;;;10240447;28;20178;-56
2022/11/20 16:29:06;;;;;;;1.85;1.50;;;;;;;;;;10241894;28;20062;-49
2022/11/20 16:34:08;;;;;;;1.70;1.40;;;;;;;;;;10225431;29;20419;-48
2022/11/20 16:39:09;;;;;;;1.60;1.30;;;;;;;;;;10241697;28;20031;-49
2022/11/20 16:44:10;;;;;;;1.40;1.30;;;;;;;;;;10236945;29;20423;-50
2022/11/20 16:49:12;;;;;;;2.92;1.30;;;;;;;;;;10292094;28;20038;-47
2022/11/20 16:54:13;;;;;;;2.00;1.50;;;;;;;;;;10322159;28;20078;-52
2022/11/20 16:59:14;;;;;;;3.97;1.50;;;;;;;;;;10326572;28;20109;-57
2022/11/20 17:04:14;;;;;;;1.30;1.20;;;;;;;;;;10312367;28;20125;-58
2022/11/20 17:09:16;;;;;;;16.33;2.75;;;;;;;;;;10327421;28;20057;-61
2022/11/20 17:14:16;;;;;;;19.77;2.50;;;;;;;;;;10334859;28;20062;-62
2022/11/20 17:19:17;;;;;;;22.38;3.53;;;;;;;;;;10331561;28;20057;-52
2022/11/20 17:24:19;;;;;;;17.23;2.53;;;;;;;;;;10329295;28;20481;-47
2022/11/20 17:29:23;;;;;;;8.18;2.30;;;;;;;;;;10332284;28;20133;-49
2022/11/20 17:34:23;;;;;;;11.38;2.40;;;;;;;;;;10332694;28;20022;-61
2022/11/20 17:39:24;;;;;;;10.73;2.15;;;;;;;;;;10328152;28;20488;-58
2022/11/20 17:44:24;;;;;;;9.63;2.30;;;;;;;;;;10330572;28;20034;-51
2022/11/20 17:49:25;;;;;;;9.18;2.58;;;;;;;;;;10332656;28;20033;-50
2022/11/20 17:54:25;;;;;;;13.65;3.08;;;;;;;;;;10333086;28;20034;-47
2022/11/20 17:59:26;;;;;;;12.25;3.55;;;;;;;;;;10332159;28;20027;-52
2022/11/20 18:04:27;;;;;;;12.88;2.92;;;;;;;;;;10332700;28;20026;-59
2022/11/20 18:09:27;;;;;;;13.60;3.78;;;;;;;;;;10333831;28;20030;-56
2022/11/20 18:14:31;;;;;;;5.20;2.60;;;;;;;;;;10333197;28;20046;-49
2022/11/20 18:19:43;;;;;;;8.98;3.05;;;;;;;;;;10332907;28;20541;-48
2022/11/20 18:24:45;;;;;;;10.13;2.75;;;;;;;;;;10332332;28;20041;-47
2022/11/20 18:29:50;;;;;;;10.05;2.83;;;;;;;;;;10332117;28;20100;-48
2022/11/20 18:34:51;;;;;;;13.32;2.88;;;;;;;;;;10332933;28;20030;-48
2022/11/20 18:39:51;;;;;;;11.65;2.75;;;;;;;;;;10332270;28;20030;-47
2022/11/20 18:44:55;;;;;;;11.27;2.55;;;;;;;;;;10332561;28;20038;-47
2022/11/20 18:49:59;;;;;;;11.50;2.95;;;;;;;;;;10332225;28;20113;-47
2022/11/20 18:55:05;;;;;;;8.50;3.03;;;;;;;;;;10331518;28;20367;-48
2022/11/20 19:00:06;;;;;;;8.32;2.58;;;;;;;;;;10332520;28;20058;-47
2022/11/20 19:05:07;;;;;;;9.45;2.90;;;;;;;;;;10331232;28;20478;-48
2022/11/20 19:10:08;;;;;;;6.82;2.75;;;;;;;;;;10331423;28;20029;-48
2022/11/20 19:15:09;;;;;;;6.55;2.33;;;;;;;;;;10330804;28;20030;-64
2022/11/20 19:20:10;;;;;;;7.78;3.47;;;;;;;;;;10330159;28;20030;-62
2022/11/20 19:25:10;;;;;;;7.35;2.80;;;;;;;;;;10328730;28;20026;-58
2022/11/20 19:30:11;;;;;;;5.72;2.75;;;;;;;;;;10330076;28;20070;-62
2022/11/20 19:35:12;;;;;;;9.73;2.50;;;;;;;;;;10329921;28;20378;-63
2022/11/20 19:40:13;;;;;;;7.93;2.92;;;;;;;;;;10330431;28;20088;-59
2022/11/20 19:45:13;;;;;;;8.60;2.90;;;;;;;;;;10329833;28;20030;-56
2022/11/20 19:50:14;;;;;;;8.85;3.65;;;;;;;;;;10329899;28;20062;-57
2022/11/20 19:55:15;;;;;;;8.60;2.78;;;;;;;;;;10329651;28;20049;-58
2022/11/20 20:00:16;;;;;;;5.78;2.72;;;;;;;;;;10328608;28;20093;-62
2022/11/20 20:05:17;;;;;;;4.53;2.65;;;;;;;;;;10327815;28;20501;-64
2022/11/20 20:10:19;;;;;;;6.35;3.05;;;;;;;;;;10324645;28;20166;-54
2022/11/20 20:15:19;;;;;;;7.50;3.63;;;;;;;;;;10327178;28;20030;-49
2022/11/20 20:20:20;;;;;;;7.40;3.35;;;;;;;;;;10327769;28;20030;-50
2022/11/20 20:25:21;;;;;;;10.50;3.17;;;;;;;;;;10327351;28;20100;-58
2022/11/20 20:30:21;;;;;;;8.23;3.33;;;;;;;;;;10326540;28;20054;-50
2022/11/20 20:35:22;;;;;;;6.70;3.30;;;;;;;;;;10328304;28;20030;-62
2022/11/20 20:40:23;;;;;;;6.78;3.33;;;;;;;;;;10326381;28;20482;-64
2022/11/20 20:45:24;;;;;;;5.50;3.00;;;;;;;;;;10313627;28;20090;-49
2022/11/20 20:50:24;;;;;;;6.93;3.55;;;;;;;;;;10316509;28;20363;-62
2022/11/20 20:55:25;;;;;;;7.68;3.58;;;;;;;;;;10326549;28;20033;-59
2022/11/20 21:00:25;;;;;;;5.28;3.20;;;;;;;;;;10326561;28;20108;-62
2022/11/20 21:05:26;;;;;;;5.10;2.75;;;;;;;;;;10323547;28;20478;-58
2022/11/20 21:10:26;;;;;;;5.63;3.35;;;;;;;;;;10324772;28;20394;-64
2022/11/20 21:15:27;;;;;;;5.60;3.88;;;;;;;;;;10325505;28;20447;-57
2022/11/20 21:25:47;;;;;;;8.20;4.15;;;;;;;;;;10325148;28;20463;-61
2022/11/20 21:30:47;;;;;;;16.30;4.35;;;;;;;;;;10324185;28;20046;-60
2022/11/20 21:35:48;;;;;;;12.00;4.13;;;;;;;;;;10324645;28;20035;-64
2022/11/20 21:40:49;;;;;;;7.50;3.83;;;;;;;;;;10324889;28;20474;-64
2022/11/20 21:45:51;;;;;;;14.73;3.60;;;;;;;;;;10324828;28;20560;-53
2022/11/20 21:50:51;;;;;;;7.10;3.50;;;;;;;;;;10325127;28;20109;-56
2022/11/20 21:55:53;;;;;;;13.43;4.63;;;;;;;;;;10325612;28;20030;-58
2022/11/20 22:00:54;;;;;;;7.07;3.83;;;;;;;;;;10333366;28;20049;-57
2022/11/20 22:05:56;;;;;;;8.88;3.70;;;;;;;;;;10333778;28;20053;-54
2022/11/20 22:11:00;;;;;;;12.35;3.53;;;;;;;;;;10333238;28;20030;-59
2022/11/20 22:16:00;;;;;;;9.43;3.83;;;;;;;;;;10332964;28;20073;-56
2022/11/20 22:21:06;;;;;;;8.57;3.70;;;;;;;;;;10332211;28;20060;-56
2022/11/20 22:26:13;;;;;;;6.90;3.50;;;;;;;;;;10332539;28;20057;-57
2022/11/20 22:31:15;;;;;;;5.83;3.07;;;;;;;;;;10332510;28;20391;-60
2022/11/20 22:36:22;;;;;;;6.80;3.47;;;;;;;;;;10332507;28;20034;-54
2022/11/20 22:41:26;;;;;;;10.15;3.90;;;;;;;;;;10330615;28;20064;-52
2022/11/20 22:46:31;;;;;;;9.10;4.53;;;;;;;;;;10331176;28;20034;-57
2022/11/20 22:51:35;;;;;;;14.10;3.92;;;;;;;;;;10330463;28;20031;-47
2022/11/20 22:56:35;;;;;;;16.70;3.58;;;;;;;;;;10331310;28;20438;-52
2022/11/20 23:01:37;;;;;;;6.43;3.78;;;;;;;;;;10332164;28;20096;-47
2022/11/20 23:06:38;;;;;;;10.38;3.85;;;;;;;;;;10332187;28;20037;-50
2022/11/20 23:11:38;;;;;;;8.75;4.05;;;;;;;;;;10331516;28;20057;-47
2022/11/20 23:16:39;;;;;;;7.68;3.33;;;;;;;;;;10331218;28;20038;-51
2022/11/20 23:21:41;;;;;;;18.20;3.63;;;;;;;;;;10330932;28;20030;-52
2022/11/20 23:26:44;;;;;;;6.80;3.58;;;;;;;;;;10331062;28;20034;-51
2022/11/20 23:31:44;;;;;;;10.20;3.33;;;;;;;;;;10330669;28;20050;-56
2022/11/20 23:36:45;;;;;;;6.95;3.58;;;;;;;;;;10330839;28;20045;-60
2022/11/20 23:41:45;;;;;;;9.40;3.33;;;;;;;;;;10330025;28;20033;-47
2022/11/20 23:46:46;;;;;;;9.95;3.17;;;;;;;;;;10328868;28;20018;-49
2022/11/20 23:51:46;;;;;;;9.60;3.67;;;;;;;;;;10329433;28;20039;-55
2022/11/20 23:56:47;;;;;;;9.75;3.38;;;;;;;;;;10329321;28;20055;-48
